Ambrose, Georgia
Current Conditions -  °F | °C
As of 12:15 PM on Wednesday 26 Nov 2014 (Local Time) from KDQH Reporting Station
Clear Clear  
Wind Chill: 15°   Ceiling: Unl
Heat Index: 15°   Visibility: 10mi
Dew Point:   Wind: 9mph
Humidity: 51%   Direction: 280°W
Pressure: 30.13"   Gusts: NA
Location:  31.59°N, 83.01°W
Report Text: KDQH 261715Z AUTO 28008KT 10SM CLR 15/05 A3013 RMK AO2
Loading
Personal Weather Stations






























Interactive Weather Map New forecast layout! Learn more

10-Day Weather Forecast

Advertisements
Track Severe Weather on mobile